sensor_id;sensor_type;location;lat;lon;timestamp;P1;durP1;ratioP1;P2;durP2;ratioP2
11665;SDS011;5889;51.350;6.708;2022-12-11T00:01:51;100.50;;;28.33;;
11665;SDS011;5889;51.350;6.708;2022-12-11T00:04:18;100.57;;;28.63;;
11665;SDS011;5889;51.350;6.708;2022-12-11T00:06:45;98.27;;;27.60;;
11665;SDS011;5889;51.350;6.708;2022-12-11T00:09:15;97.37;;;27.33;;
11665;SDS011;5889;51.350;6.708;2022-12-11T00:11:43;96.60;;;26.77;;
11665;SDS011;5889;51.350;6.708;2022-12-11T00:14:10;106.83;;;28.23;;
11665;SDS011;5889;51.350;6.708;2022-12-11T00:16:37;101.13;;;27.77;;
11665;SDS011;5889;51.350;6.708;2022-12-11T00:19:04;101.73;;;27.27;;
11665;SDS011;5889;51.350;6.708;2022-12-11T00:21:32;98.67;;;28.40;;
11665;SDS011;5889;51.350;6.708;2022-12-11T00:23:59;104.87;;;28.30;;
11665;SDS011;5889;51.350;6.708;2022-12-11T00:26:28;109.37;;;29.07;;
11665;SDS011;5889;51.350;6.708;2022-12-11T00:28:55;95.07;;;28.00;;
11665;SDS011;5889;51.350;6.708;2022-12-11T00:31:22;86.97;;;24.83;;
11665;SDS011;5889;51.350;6.708;2022-12-11T00:33:49;83.93;;;23.63;;
11665;SDS011;5889;51.350;6.708;2022-12-11T00:36:17;68.00;;;23.07;;
11665;SDS011;5889;51.350;6.708;2022-12-11T00:38:45;65.17;;;21.13;;
11665;SDS011;5889;51.350;6.708;2022-12-11T00:41:13;65.10;;;20.40;;
11665;SDS011;5889;51.350;6.708;2022-12-11T00:43:44;65.37;;;19.80;;
11665;SDS011;5889;51.350;6.708;2022-12-11T00:46:12;57.73;;;19.13;;
11665;SDS011;5889;51.350;6.708;2022-12-11T00:48:39;54.37;;;19.30;;
11665;SDS011;5889;51.350;6.708;2022-12-11T00:51:06;56.60;;;19.63;;
11665;SDS011;5889;51.350;6.708;2022-12-11T00:53:33;52.47;;;18.50;;
11665;SDS011;5889;51.350;6.708;2022-12-11T00:56:01;55.73;;;19.00;;
11665;SDS011;5889;51.350;6.708;2022-12-11T00:58:35;50.57;;;17.77;;
11665;SDS011;5889;51.350;6.708;2022-12-11T01:01:07;63.63;;;20.00;;
11665;SDS011;5889;51.350;6.708;2022-12-11T01:03:35;53.40;;;18.97;;
11665;SDS011;5889;51.350;6.708;2022-12-11T01:06:02;51.20;;;18.23;;
11665;SDS011;5889;51.350;6.708;2022-12-11T01:08:30;55.80;;;19.17;;
11665;SDS011;5889;51.350;6.708;2022-12-11T01:11:00;53.47;;;19.27;;
11665;SDS011;5889;51.350;6.708;2022-12-11T01:13:27;53.97;;;18.83;;
11665;SDS011;5889;51.350;6.708;2022-12-11T01:15:54;59.60;;;20.40;;
11665;SDS011;5889;51.350;6.708;2022-12-11T01:18:23;61.50;;;20.33;;
11665;SDS011;5889;51.350;6.708;2022-12-11T01:20:50;65.17;;;21.77;;
11665;SDS011;5889;51.350;6.708;2022-12-11T01:23:17;69.23;;;21.00;;
11665;SDS011;5889;51.350;6.708;2022-12-11T01:25:44;73.50;;;23.23;;
11665;SDS011;5889;51.350;6.708;2022-12-11T01:28:11;67.83;;;23.57;;
11665;SDS011;5889;51.350;6.708;2022-12-11T01:30:39;74.50;;;23.20;;
11665;SDS011;5889;51.350;6.708;2022-12-11T01:33:06;72.07;;;22.77;;
11665;SDS011;5889;51.350;6.708;2022-12-11T01:35:35;69.13;;;23.33;;
11665;SDS011;5889;51.350;6.708;2022-12-11T01:38:03;72.53;;;22.30;;
11665;SDS011;5889;51.350;6.708;2022-12-11T01:40:30;75.13;;;23.13;;
11665;SDS011;5889;51.350;6.708;2022-12-11T01:42:57;79.20;;;23.77;;
11665;SDS011;5889;51.350;6.708;2022-12-11T01:45:32;73.00;;;21.87;;
11665;SDS011;5889;51.350;6.708;2022-12-11T01:48:07;71.93;;;22.83;;
11665;SDS011;5889;51.350;6.708;2022-12-11T01:50:38;64.53;;;21.23;;
11665;SDS011;5889;51.350;6.708;2022-12-11T01:53:09;64.50;;;21.10;;
11665;SDS011;5889;51.350;6.708;2022-12-11T01:55:40;67.67;;;22.40;;
11665;SDS011;5889;51.350;6.708;2022-12-11T01:58:07;70.47;;;22.70;;
11665;SDS011;5889;51.350;6.708;2022-12-11T02:00:35;67.60;;;22.60;;
11665;SDS011;5889;51.350;6.708;2022-12-11T02:03:02;66.67;;;22.93;;
11665;SDS011;5889;51.350;6.708;2022-12-11T02:05:30;63.63;;;22.10;;
11665;SDS011;5889;51.350;6.708;2022-12-11T02:07:58;62.33;;;20.50;;
11665;SDS011;5889;51.350;6.708;2022-12-11T02:10:30;66.30;;;21.43;;
11665;SDS011;5889;51.350;6.708;2022-12-11T02:13:10;60.70;;;22.10;;
11665;SDS011;5889;51.350;6.708;2022-12-11T02:15:41;72.63;;;23.77;;
11665;SDS011;5889;51.350;6.708;2022-12-11T02:18:16;75.57;;;22.80;;
11665;SDS011;5889;51.350;6.708;2022-12-11T02:20:49;66.57;;;21.47;;
11665;SDS011;5889;51.350;6.708;2022-12-11T02:26:42;76.13;;;25.03;;
11665;SDS011;5889;51.350;6.708;2022-12-11T02:29:21;69.87;;;22.50;;
11665;SDS011;5889;51.350;6.708;2022-12-11T02:32:15;71.00;;;23.03;;
11665;SDS011;5889;51.350;6.708;2022-12-11T02:34:47;75.40;;;23.33;;
11665;SDS011;5889;51.350;6.708;2022-12-11T02:37:20;69.67;;;22.73;;
11665;SDS011;5889;51.350;6.708;2022-12-11T02:39:52;75.27;;;25.30;;
11665;SDS011;5889;51.350;6.708;2022-12-11T02:42:21;72.17;;;22.87;;
11665;SDS011;5889;51.350;6.708;2022-12-11T02:44:55;70.27;;;22.70;;
11665;SDS011;5889;51.350;6.708;2022-12-11T02:47:25;75.00;;;24.90;;
11665;SDS011;5889;51.350;6.708;2022-12-11T02:49:59;77.37;;;23.53;;
11665;SDS011;5889;51.350;6.708;2022-12-11T02:52:28;74.27;;;24.23;;
11665;SDS011;5889;51.350;6.708;2022-12-11T02:54:57;65.87;;;23.80;;
11665;SDS011;5889;51.350;6.708;2022-12-11T02:57:26;74.07;;;23.90;;
11665;SDS011;5889;51.350;6.708;2022-12-11T03:00:00;71.73;;;23.47;;
11665;SDS011;5889;51.350;6.708;2022-12-11T03:02:27;77.50;;;24.60;;
11665;SDS011;5889;51.350;6.708;2022-12-11T03:04:54;70.57;;;22.93;;
11665;SDS011;5889;51.350;6.708;2022-12-11T03:07:22;70.13;;;24.30;;
11665;SDS011;5889;51.350;6.708;2022-12-11T03:09:52;74.83;;;23.63;;
11665;SDS011;5889;51.350;6.708;2022-12-11T03:12:20;69.00;;;23.53;;
11665;SDS011;5889;51.350;6.708;2022-12-11T03:14:50;73.77;;;23.67;;
11665;SDS011;5889;51.350;6.708;2022-12-11T03:17:20;71.83;;;24.13;;
11665;SDS011;5889;51.350;6.708;2022-12-11T03:19:50;73.17;;;22.80;;
11665;SDS011;5889;51.350;6.708;2022-12-11T03:22:25;70.57;;;23.90;;
11665;SDS011;5889;51.350;6.708;2022-12-11T03:24:58;68.33;;;22.60;;
11665;SDS011;5889;51.350;6.708;2022-12-11T03:27:29;71.60;;;23.23;;
11665;SDS011;5889;51.350;6.708;2022-12-11T03:30:02;66.90;;;23.50;;
11665;SDS011;5889;51.350;6.708;2022-12-11T03:32:35;67.03;;;23.90;;
11665;SDS011;5889;51.350;6.708;2022-12-11T03:35:06;75.17;;;24.57;;
11665;SDS011;5889;51.350;6.708;2022-12-11T03:37:37;61.43;;;22.40;;
11665;SDS011;5889;51.350;6.708;2022-12-11T03:40:08;70.77;;;25.03;;
11665;SDS011;5889;51.350;6.708;2022-12-11T03:42:38;65.53;;;23.33;;
11665;SDS011;5889;51.350;6.708;2022-12-11T03:45:07;71.23;;;21.73;;
11665;SDS011;5889;51.350;6.708;2022-12-11T03:47:36;62.60;;;22.97;;
11665;SDS011;5889;51.350;6.708;2022-12-11T03:50:05;61.73;;;23.07;;
11665;SDS011;5889;51.350;6.708;2022-12-11T03:52:35;69.80;;;23.73;;
11665;SDS011;5889;51.350;6.708;2022-12-11T03:55:04;58.70;;;21.63;;
11665;SDS011;5889;51.350;6.708;2022-12-11T03:57:34;63.43;;;23.67;;
11665;SDS011;5889;51.350;6.708;2022-12-11T04:00:03;58.73;;;21.70;;
11665;SDS011;5889;51.350;6.708;2022-12-11T04:02:30;64.47;;;23.20;;
11665;SDS011;5889;51.350;6.708;2022-12-11T04:04:59;61.97;;;23.13;;
11665;SDS011;5889;51.350;6.708;2022-12-11T04:07:26;58.97;;;22.57;;
11665;SDS011;5889;51.350;6.708;2022-12-11T04:09:55;61.43;;;22.57;;
11665;SDS011;5889;51.350;6.708;2022-12-11T04:12:22;66.73;;;22.63;;
11665;SDS011;5889;51.350;6.708;2022-12-11T04:14:49;63.80;;;23.50;;
11665;SDS011;5889;51.350;6.708;2022-12-11T04:17:27;54.47;;;21.67;;
11665;SDS011;5889;51.350;6.708;2022-12-11T04:20:13;58.30;;;22.87;;
11665;SDS011;5889;51.350;6.708;2022-12-11T04:22:58;57.63;;;22.90;;
11665;SDS011;5889;51.350;6.708;2022-12-11T04:25:42;64.00;;;21.97;;
11665;SDS011;5889;51.350;6.708;2022-12-11T04:28:09;60.00;;;22.53;;
11665;SDS011;5889;51.350;6.708;2022-12-11T04:30:36;57.43;;;21.50;;
11665;SDS011;5889;51.350;6.708;2022-12-11T04:33:03;62.00;;;22.67;;
11665;SDS011;5889;51.350;6.708;2022-12-11T04:35:31;58.87;;;23.20;;
11665;SDS011;5889;51.350;6.708;2022-12-11T04:37:58;61.40;;;23.80;;
11665;SDS011;5889;51.350;6.708;2022-12-11T04:40:25;62.77;;;23.10;;
11665;SDS011;5889;51.350;6.708;2022-12-11T04:42:52;55.63;;;22.13;;
11665;SDS011;5889;51.350;6.708;2022-12-11T04:45:19;59.83;;;21.30;;
11665;SDS011;5889;51.350;6.708;2022-12-11T04:47:46;52.67;;;21.73;;
11665;SDS011;5889;51.350;6.708;2022-12-11T04:50:13;51.60;;;20.90;;
11665;SDS011;5889;51.350;6.708;2022-12-11T04:52:42;50.83;;;21.03;;
11665;SDS011;5889;51.350;6.708;2022-12-11T04:55:09;50.97;;;21.83;;
11665;SDS011;5889;51.350;6.708;2022-12-11T04:57:37;56.37;;;22.07;;
11665;SDS011;5889;51.350;6.708;2022-12-11T05:00:04;52.70;;;22.07;;
11665;SDS011;5889;51.350;6.708;2022-12-11T05:02:33;48.73;;;21.60;;
11665;SDS011;5889;51.350;6.708;2022-12-11T05:05:01;48.07;;;21.87;;
11665;SDS011;5889;51.350;6.708;2022-12-11T05:07:29;46.83;;;21.50;;
11665;SDS011;5889;51.350;6.708;2022-12-11T05:09:58;46.43;;;20.90;;
11665;SDS011;5889;51.350;6.708;2022-12-11T05:12:25;50.80;;;21.87;;
11665;SDS011;5889;51.350;6.708;2022-12-11T05:14:52;51.83;;;20.83;;
11665;SDS011;5889;51.350;6.708;2022-12-11T05:17:19;48.00;;;20.50;;
11665;SDS011;5889;51.350;6.708;2022-12-11T05:19:46;45.00;;;20.23;;
11665;SDS011;5889;51.350;6.708;2022-12-11T05:22:14;53.10;;;21.20;;
11665;SDS011;5889;51.350;6.708;2022-12-11T05:24:41;45.57;;;19.53;;
11665;SDS011;5889;51.350;6.708;2022-12-11T05:27:09;49.97;;;21.17;;
11665;SDS011;5889;51.350;6.708;2022-12-11T05:29:37;57.47;;;20.23;;
11665;SDS011;5889;51.350;6.708;2022-12-11T05:32:04;49.77;;;21.63;;
11665;SDS011;5889;51.350;6.708;2022-12-11T05:34:31;51.47;;;21.53;;
11665;SDS011;5889;51.350;6.708;2022-12-11T05:36:58;52.63;;;22.10;;
11665;SDS011;5889;51.350;6.708;2022-12-11T05:39:25;53.07;;;21.53;;
11665;SDS011;5889;51.350;6.708;2022-12-11T05:41:52;54.73;;;22.83;;
11665;SDS011;5889;51.350;6.708;2022-12-11T05:44:20;54.63;;;22.93;;
11665;SDS011;5889;51.350;6.708;2022-12-11T05:46:47;52.70;;;22.07;;
11665;SDS011;5889;51.350;6.708;2022-12-11T05:49:14;49.90;;;21.77;;
11665;SDS011;5889;51.350;6.708;2022-12-11T05:51:41;55.47;;;22.93;;
11665;SDS011;5889;51.350;6.708;2022-12-11T05:54:08;54.90;;;22.13;;
11665;SDS011;5889;51.350;6.708;2022-12-11T05:56:36;51.27;;;21.50;;
11665;SDS011;5889;51.350;6.708;2022-12-11T05:59:03;49.83;;;21.23;;
11665;SDS011;5889;51.350;6.708;2022-12-11T06:01:33;56.57;;;21.37;;
11665;SDS011;5889;51.350;6.708;2022-12-11T06:04:02;49.63;;;20.10;;
11665;SDS011;5889;51.350;6.708;2022-12-11T06:06:30;48.13;;;20.93;;
11665;SDS011;5889;51.350;6.708;2022-12-11T06:08:57;48.20;;;21.20;;
11665;SDS011;5889;51.350;6.708;2022-12-11T06:11:25;56.10;;;20.50;;
11665;SDS011;5889;51.350;6.708;2022-12-11T06:13:53;51.93;;;20.17;;
11665;SDS011;5889;51.350;6.708;2022-12-11T06:16:21;52.37;;;20.53;;
11665;SDS011;5889;51.350;6.708;2022-12-11T06:18:50;45.27;;;19.30;;
11665;SDS011;5889;51.350;6.708;2022-12-11T06:21:18;45.53;;;18.50;;
11665;SDS011;5889;51.350;6.708;2022-12-11T06:23:46;51.37;;;19.63;;
11665;SDS011;5889;51.350;6.708;2022-12-11T06:26:14;50.87;;;20.47;;
11665;SDS011;5889;51.350;6.708;2022-12-11T06:28:43;49.20;;;20.00;;
11665;SDS011;5889;51.350;6.708;2022-12-11T06:31:10;52.00;;;20.60;;
11665;SDS011;5889;51.350;6.708;2022-12-11T06:33:37;52.27;;;20.30;;
11665;SDS011;5889;51.350;6.708;2022-12-11T06:36:06;50.43;;;19.37;;
11665;SDS011;5889;51.350;6.708;2022-12-11T06:38:35;49.57;;;19.93;;
11665;SDS011;5889;51.350;6.708;2022-12-11T06:41:02;49.03;;;19.63;;
11665;SDS011;5889;51.350;6.708;2022-12-11T06:43:30;47.43;;;19.50;;
11665;SDS011;5889;51.350;6.708;2022-12-11T06:45:58;49.33;;;20.67;;
11665;SDS011;5889;51.350;6.708;2022-12-11T06:48:25;51.63;;;20.13;;
11665;SDS011;5889;51.350;6.708;2022-12-11T06:50:52;54.37;;;21.50;;
11665;SDS011;5889;51.350;6.708;2022-12-11T06:53:20;51.40;;;20.33;;
11665;SDS011;5889;51.350;6.708;2022-12-11T06:55:47;48.10;;;19.50;;
11665;SDS011;5889;51.350;6.708;2022-12-11T06:58:14;51.87;;;20.17;;
11665;SDS011;5889;51.350;6.708;2022-12-11T07:00:41;50.10;;;19.73;;
11665;SDS011;5889;51.350;6.708;2022-12-11T07:03:08;49.50;;;19.27;;
11665;SDS011;5889;51.350;6.708;2022-12-11T07:05:35;49.67;;;18.67;;
11665;SDS011;5889;51.350;6.708;2022-12-11T07:08:02;47.23;;;19.30;;
11665;SDS011;5889;51.350;6.708;2022-12-11T07:10:31;45.13;;;19.57;;
11665;SDS011;5889;51.350;6.708;2022-12-11T07:12:58;48.97;;;20.40;;
11665;SDS011;5889;51.350;6.708;2022-12-11T07:15:24;44.73;;;18.83;;
11665;SDS011;5889;51.350;6.708;2022-12-11T07:17:51;48.43;;;21.37;;
11665;SDS011;5889;51.350;6.708;2022-12-11T07:20:18;50.93;;;21.27;;
11665;SDS011;5889;51.350;6.708;2022-12-11T07:22:45;54.80;;;21.93;;
11665;SDS011;5889;51.350;6.708;2022-12-11T07:25:12;47.70;;;20.50;;
11665;SDS011;5889;51.350;6.708;2022-12-11T07:27:41;47.07;;;21.13;;
11665;SDS011;5889;51.350;6.708;2022-12-11T07:30:08;46.47;;;19.97;;
11665;SDS011;5889;51.350;6.708;2022-12-11T07:32:36;43.63;;;18.67;;
11665;SDS011;5889;51.350;6.708;2022-12-11T07:35:03;48.13;;;18.93;;
11665;SDS011;5889;51.350;6.708;2022-12-11T07:37:30;49.20;;;20.90;;
11665;SDS011;5889;51.350;6.708;2022-12-11T07:39:57;45.13;;;19.40;;
11665;SDS011;5889;51.350;6.708;2022-12-11T07:42:24;45.30;;;19.63;;
11665;SDS011;5889;51.350;6.708;2022-12-11T07:44:53;44.30;;;20.00;;
11665;SDS011;5889;51.350;6.708;2022-12-11T07:47:20;47.10;;;20.27;;
11665;SDS011;5889;51.350;6.708;2022-12-11T07:49:48;46.90;;;19.00;;
11665;SDS011;5889;51.350;6.708;2022-12-11T07:52:15;42.17;;;19.00;;
11665;SDS011;5889;51.350;6.708;2022-12-11T07:54:42;45.33;;;18.73;;
11665;SDS011;5889;51.350;6.708;2022-12-11T07:57:09;45.23;;;19.87;;
11665;SDS011;5889;51.350;6.708;2022-12-11T07:59:36;42.50;;;18.50;;
11665;SDS011;5889;51.350;6.708;2022-12-11T08:02:04;45.50;;;18.60;;
11665;SDS011;5889;51.350;6.708;2022-12-11T08:04:31;41.80;;;18.33;;
11665;SDS011;5889;51.350;6.708;2022-12-11T08:06:58;44.63;;;19.50;;
11665;SDS011;5889;51.350;6.708;2022-12-11T08:09:25;48.90;;;19.20;;
11665;SDS011;5889;51.350;6.708;2022-12-11T08:11:52;38.23;;;18.80;;
11665;SDS011;5889;51.350;6.708;2022-12-11T08:14:20;46.97;;;19.70;;
11665;SDS011;5889;51.350;6.708;2022-12-11T08:16:47;46.67;;;18.60;;
11665;SDS011;5889;51.350;6.708;2022-12-11T08:19:15;41.60;;;18.80;;
11665;SDS011;5889;51.350;6.708;2022-12-11T08:21:42;42.53;;;17.87;;
11665;SDS011;5889;51.350;6.708;2022-12-11T08:24:09;41.47;;;18.40;;
11665;SDS011;5889;51.350;6.708;2022-12-11T08:26:36;38.93;;;17.87;;
11665;SDS011;5889;51.350;6.708;2022-12-11T08:29:03;40.87;;;18.73;;
11665;SDS011;5889;51.350;6.708;2022-12-11T08:31:30;43.83;;;19.07;;
11665;SDS011;5889;51.350;6.708;2022-12-11T08:33:57;46.60;;;19.77;;
11665;SDS011;5889;51.350;6.708;2022-12-11T08:36:26;45.33;;;18.97;;
11665;SDS011;5889;51.350;6.708;2022-12-11T08:38:53;41.47;;;18.03;;
11665;SDS011;5889;51.350;6.708;2022-12-11T08:41:21;41.53;;;19.07;;
11665;SDS011;5889;51.350;6.708;2022-12-11T08:43:49;47.60;;;19.63;;
11665;SDS011;5889;51.350;6.708;2022-12-11T08:46:19;44.33;;;19.60;;
11665;SDS011;5889;51.350;6.708;2022-12-11T08:48:47;39.57;;;18.20;;
11665;SDS011;5889;51.350;6.708;2022-12-11T08:51:15;45.43;;;19.43;;
11665;SDS011;5889;51.350;6.708;2022-12-11T08:53:48;38.27;;;17.23;;
11665;SDS011;5889;51.350;6.708;2022-12-11T08:56:17;34.77;;;16.67;;
11665;SDS011;5889;51.350;6.708;2022-12-11T08:58:45;34.97;;;16.43;;
11665;SDS011;5889;51.350;6.708;2022-12-11T09:01:14;45.77;;;20.23;;
11665;SDS011;5889;51.350;6.708;2022-12-11T09:03:42;39.20;;;19.03;;
11665;SDS011;5889;51.350;6.708;2022-12-11T09:06:10;38.80;;;18.30;;
11665;SDS011;5889;51.350;6.708;2022-12-11T09:08:39;37.03;;;17.30;;
11665;SDS011;5889;51.350;6.708;2022-12-11T09:11:09;38.17;;;18.17;;
11665;SDS011;5889;51.350;6.708;2022-12-11T09:13:38;39.07;;;18.03;;
11665;SDS011;5889;51.350;6.708;2022-12-11T09:16:06;36.90;;;17.60;;
11665;SDS011;5889;51.350;6.708;2022-12-11T09:18:35;36.13;;;17.07;;
11665;SDS011;5889;51.350;6.708;2022-12-11T09:21:03;38.50;;;17.23;;
11665;SDS011;5889;51.350;6.708;2022-12-11T09:23:31;33.43;;;15.97;;
11665;SDS011;5889;51.350;6.708;2022-12-11T09:25:58;33.70;;;16.33;;
11665;SDS011;5889;51.350;6.708;2022-12-11T09:28:30;32.37;;;16.53;;
11665;SDS011;5889;51.350;6.708;2022-12-11T09:30:57;34.57;;;16.67;;
11665;SDS011;5889;51.350;6.708;2022-12-11T09:33:24;31.30;;;15.03;;
11665;SDS011;5889;51.350;6.708;2022-12-11T09:35:55;27.43;;;14.00;;
11665;SDS011;5889;51.350;6.708;2022-12-11T09:38:23;33.73;;;15.67;;
11665;SDS011;5889;51.350;6.708;2022-12-11T09:40:50;32.87;;;16.20;;
11665;SDS011;5889;51.350;6.708;2022-12-11T09:43:19;32.57;;;15.07;;
11665;SDS011;5889;51.350;6.708;2022-12-11T09:45:59;35.40;;;17.77;;
11665;SDS011;5889;51.350;6.708;2022-12-11T09:48:30;32.23;;;16.03;;
11665;SDS011;5889;51.350;6.708;2022-12-11T09:50:58;32.10;;;16.93;;
11665;SDS011;5889;51.350;6.708;2022-12-11T09:53:35;34.37;;;16.40;;
11665;SDS011;5889;51.350;6.708;2022-12-11T09:56:03;30.80;;;15.60;;
11665;SDS011;5889;51.350;6.708;2022-12-11T09:58:44;32.63;;;16.13;;
11665;SDS011;5889;51.350;6.708;2022-12-11T10:01:25;28.53;;;15.33;;
11665;SDS011;5889;51.350;6.708;2022-12-11T10:04:05;29.43;;;14.97;;
11665;SDS011;5889;51.350;6.708;2022-12-11T10:06:47;33.17;;;17.37;;
11665;SDS011;5889;51.350;6.708;2022-12-11T10:09:21;32.43;;;15.60;;
11665;SDS011;5889;51.350;6.708;2022-12-11T10:11:57;35.03;;;15.50;;
11665;SDS011;5889;51.350;6.708;2022-12-11T10:14:42;31.57;;;15.97;;
11665;SDS011;5889;51.350;6.708;2022-12-11T10:17:21;33.07;;;15.43;;
11665;SDS011;5889;51.350;6.708;2022-12-11T10:19:53;31.50;;;15.87;;
11665;SDS011;5889;51.350;6.708;2022-12-11T10:22:23;29.40;;;14.57;;
11665;SDS011;5889;51.350;6.708;2022-12-11T10:24:54;29.33;;;14.23;;
11665;SDS011;5889;51.350;6.708;2022-12-11T10:27:23;29.00;;;15.27;;
11665;SDS011;5889;51.350;6.708;2022-12-11T10:29:59;31.87;;;14.63;;
11665;SDS011;5889;51.350;6.708;2022-12-11T10:32:35;25.33;;;14.70;;
11665;SDS011;5889;51.350;6.708;2022-12-11T10:35:14;29.50;;;15.27;;
11665;SDS011;5889;51.350;6.708;2022-12-11T10:37:44;29.30;;;14.13;;
11665;SDS011;5889;51.350;6.708;2022-12-11T10:40:11;29.10;;;15.57;;
11665;SDS011;5889;51.350;6.708;2022-12-11T10:42:38;29.50;;;15.00;;
11665;SDS011;5889;51.350;6.708;2022-12-11T10:45:24;32.63;;;15.53;;
11665;SDS011;5889;51.350;6.708;2022-12-11T10:48:00;45.27;;;20.00;;
11665;SDS011;5889;51.350;6.708;2022-12-11T10:50:28;36.40;;;17.03;;
11665;SDS011;5889;51.350;6.708;2022-12-11T10:52:55;34.93;;;18.00;;
11665;SDS011;5889;51.350;6.708;2022-12-11T10:55:23;29.87;;;16.03;;
11665;SDS011;5889;51.350;6.708;2022-12-11T10:57:56;32.47;;;15.27;;
11665;SDS011;5889;51.350;6.708;2022-12-11T11:00:30;24.97;;;13.83;;
11665;SDS011;5889;51.350;6.708;2022-12-11T11:03:00;23.53;;;12.97;;
11665;SDS011;5889;51.350;6.708;2022-12-11T11:05:28;25.43;;;13.03;;
11665;SDS011;5889;51.350;6.708;2022-12-11T11:08:02;23.37;;;12.07;;
11665;SDS011;5889;51.350;6.708;2022-12-11T11:10:35;24.57;;;11.80;;
11665;SDS011;5889;51.350;6.708;2022-12-11T11:13:02;21.87;;;11.67;;
11665;SDS011;5889;51.350;6.708;2022-12-11T11:15:31;21.20;;;12.10;;
11665;SDS011;5889;51.350;6.708;2022-12-11T11:18:08;20.57;;;11.27;;
11665;SDS011;5889;51.350;6.708;2022-12-11T11:20:45;25.90;;;11.97;;
11665;SDS011;5889;51.350;6.708;2022-12-11T11:23:13;20.57;;;11.17;;
11665;SDS011;5889;51.350;6.708;2022-12-11T11:25:47;20.50;;;11.00;;
11665;SDS011;5889;51.350;6.708;2022-12-11T11:28:16;24.60;;;12.63;;
11665;SDS011;5889;51.350;6.708;2022-12-11T11:30:55;21.87;;;10.87;;
11665;SDS011;5889;51.350;6.708;2022-12-11T11:33:25;25.33;;;12.93;;
11665;SDS011;5889;51.350;6.708;2022-12-11T11:35:54;25.30;;;12.87;;
11665;SDS011;5889;51.350;6.708;2022-12-11T11:38:24;21.90;;;11.63;;
11665;SDS011;5889;51.350;6.708;2022-12-11T11:40:53;23.77;;;12.97;;
11665;SDS011;5889;51.350;6.708;2022-12-11T11:43:27;25.37;;;12.30;;
11665;SDS011;5889;51.350;6.708;2022-12-11T11:46:04;23.30;;;13.27;;
11665;SDS011;5889;51.350;6.708;2022-12-11T11:48:37;26.50;;;13.07;;
11665;SDS011;5889;51.350;6.708;2022-12-11T11:51:13;25.73;;;13.87;;
11665;SDS011;5889;51.350;6.708;2022-12-11T11:53:42;27.43;;;13.87;;
11665;SDS011;5889;51.350;6.708;2022-12-11T11:56:16;32.33;;;15.10;;
11665;SDS011;5889;51.350;6.708;2022-12-11T11:58:49;26.83;;;13.97;;
11665;SDS011;5889;51.350;6.708;2022-12-11T12:01:26;26.23;;;13.80;;
11665;SDS011;5889;51.350;6.708;2022-12-11T12:03:54;26.13;;;14.67;;
11665;SDS011;5889;51.350;6.708;2022-12-11T12:06:33;30.33;;;15.50;;
11665;SDS011;5889;51.350;6.708;2022-12-11T12:09:15;27.27;;;15.50;;
11665;SDS011;5889;51.350;6.708;2022-12-11T12:11:51;25.47;;;13.97;;
11665;SDS011;5889;51.350;6.708;2022-12-11T12:14:22;26.20;;;14.73;;
11665;SDS011;5889;51.350;6.708;2022-12-11T12:16:59;28.53;;;14.33;;
11665;SDS011;5889;51.350;6.708;2022-12-11T12:19:41;27.30;;;15.50;;
11665;SDS011;5889;51.350;6.708;2022-12-11T12:22:19;27.43;;;15.63;;
11665;SDS011;5889;51.350;6.708;2022-12-11T12:24:58;24.93;;;15.17;;
11665;SDS011;5889;51.350;6.708;2022-12-11T12:27:36;29.87;;;17.10;;
11665;SDS011;5889;51.350;6.708;2022-12-11T12:30:13;26.50;;;16.23;;
11665;SDS011;5889;51.350;6.708;2022-12-11T12:32:45;31.37;;;17.27;;
11665;SDS011;5889;51.350;6.708;2022-12-11T12:35:29;29.00;;;17.07;;
11665;SDS011;5889;51.350;6.708;2022-12-11T12:38:02;29.97;;;16.07;;
11665;SDS011;5889;51.350;6.708;2022-12-11T12:40:38;29.47;;;15.40;;
11665;SDS011;5889;51.350;6.708;2022-12-11T12:43:19;29.07;;;16.40;;
11665;SDS011;5889;51.350;6.708;2022-12-11T12:46:04;30.33;;;16.20;;
11665;SDS011;5889;51.350;6.708;2022-12-11T12:48:41;27.97;;;15.33;;
11665;SDS011;5889;51.350;6.708;2022-12-11T12:51:09;27.47;;;15.67;;
11665;SDS011;5889;51.350;6.708;2022-12-11T12:53:39;29.67;;;15.47;;
11665;SDS011;5889;51.350;6.708;2022-12-11T12:56:09;28.10;;;15.83;;
11665;SDS011;5889;51.350;6.708;2022-12-11T12:58:40;32.47;;;17.23;;
11665;SDS011;5889;51.350;6.708;2022-12-11T13:01:12;30.67;;;15.40;;
11665;SDS011;5889;51.350;6.708;2022-12-11T13:03:52;29.47;;;14.97;;
11665;SDS011;5889;51.350;6.708;2022-12-11T13:06:28;33.70;;;16.60;;
11665;SDS011;5889;51.350;6.708;2022-12-11T13:09:08;30.47;;;16.87;;
11665;SDS011;5889;51.350;6.708;2022-12-11T13:11:37;30.83;;;15.40;;
11665;SDS011;5889;51.350;6.708;2022-12-11T13:14:05;32.27;;;15.70;;
11665;SDS011;5889;51.350;6.708;2022-12-11T13:16:47;29.77;;;15.57;;
11665;SDS011;5889;51.350;6.708;2022-12-11T13:19:24;28.17;;;15.30;;
11665;SDS011;5889;51.350;6.708;2022-12-11T13:21:54;28.07;;;15.33;;
11665;SDS011;5889;51.350;6.708;2022-12-11T13:24:26;33.87;;;15.90;;
11665;SDS011;5889;51.350;6.708;2022-12-11T13:26:54;29.40;;;14.93;;
11665;SDS011;5889;51.350;6.708;2022-12-11T13:29:28;29.73;;;14.83;;
11665;SDS011;5889;51.350;6.708;2022-12-11T13:31:57;29.87;;;15.33;;
11665;SDS011;5889;51.350;6.708;2022-12-11T13:34:29;30.47;;;15.57;;
11665;SDS011;5889;51.350;6.708;2022-12-11T13:36:58;34.20;;;16.87;;
11665;SDS011;5889;51.350;6.708;2022-12-11T13:39:28;33.83;;;16.37;;
11665;SDS011;5889;51.350;6.708;2022-12-11T13:41:58;31.63;;;16.07;;
11665;SDS011;5889;51.350;6.708;2022-12-11T13:44:29;28.80;;;15.93;;
11665;SDS011;5889;51.350;6.708;2022-12-11T13:46:59;33.57;;;15.73;;
11665;SDS011;5889;51.350;6.708;2022-12-11T13:49:31;30.53;;;15.40;;
11665;SDS011;5889;51.350;6.708;2022-12-11T13:52:01;34.33;;;15.37;;
11665;SDS011;5889;51.350;6.708;2022-12-11T13:54:30;33.13;;;14.83;;
11665;SDS011;5889;51.350;6.708;2022-12-11T13:57:01;27.80;;;15.57;;
11665;SDS011;5889;51.350;6.708;2022-12-11T13:59:41;30.90;;;15.77;;
11665;SDS011;5889;51.350;6.708;2022-12-11T14:02:12;37.30;;;16.97;;
11665;SDS011;5889;51.350;6.708;2022-12-11T14:04:51;31.53;;;16.23;;
11665;SDS011;5889;51.350;6.708;2022-12-11T14:07:22;31.60;;;16.33;;
11665;SDS011;5889;51.350;6.708;2022-12-11T14:09:52;30.67;;;14.53;;
11665;SDS011;5889;51.350;6.708;2022-12-11T14:12:22;36.27;;;17.10;;
11665;SDS011;5889;51.350;6.708;2022-12-11T14:14:49;34.37;;;16.17;;
11665;SDS011;5889;51.350;6.708;2022-12-11T14:17:22;36.37;;;17.13;;
11665;SDS011;5889;51.350;6.708;2022-12-11T14:19:52;34.77;;;17.17;;
11665;SDS011;5889;51.350;6.708;2022-12-11T14:22:22;32.23;;;16.40;;
11665;SDS011;5889;51.350;6.708;2022-12-11T14:24:52;32.40;;;16.77;;
11665;SDS011;5889;51.350;6.708;2022-12-11T14:27:20;31.40;;;17.13;;
11665;SDS011;5889;51.350;6.708;2022-12-11T14:29:48;35.00;;;16.77;;
11665;SDS011;5889;51.350;6.708;2022-12-11T14:32:16;35.23;;;16.80;;
11665;SDS011;5889;51.350;6.708;2022-12-11T14:34:46;34.93;;;16.90;;
11665;SDS011;5889;51.350;6.708;2022-12-11T14:37:16;33.23;;;16.93;;
11665;SDS011;5889;51.350;6.708;2022-12-11T14:39:48;35.37;;;17.77;;
11665;SDS011;5889;51.350;6.708;2022-12-11T14:42:22;35.70;;;16.27;;
11665;SDS011;5889;51.350;6.708;2022-12-11T14:44:52;34.63;;;16.60;;
11665;SDS011;5889;51.350;6.708;2022-12-11T14:47:22;34.70;;;16.43;;
11665;SDS011;5889;51.350;6.708;2022-12-11T14:49:53;35.90;;;17.00;;
11665;SDS011;5889;51.350;6.708;2022-12-11T14:52:26;36.93;;;16.63;;
11665;SDS011;5889;51.350;6.708;2022-12-11T14:54:58;34.43;;;16.17;;